sensor_id;sensor_type;location;lat;lon;timestamp;P1;durP1;ratioP1;P2;durP2;ratioP2
38397;SDS011;24179;52.094;4.408;2024-01-07T00:01:39;13.23;;;11.83;;
38397;SDS011;24179;52.094;4.408;2024-01-07T00:04:45;13.40;;;12.10;;
38397;SDS011;24179;52.094;4.408;2024-01-07T00:07:46;14.13;;;12.77;;
38397;SDS011;24179;52.094;4.408;2024-01-07T00:10:48;14.85;;;12.82;;
38397;SDS011;24179;52.094;4.408;2024-01-07T00:13:48;13.30;;;11.93;;
38397;SDS011;24179;52.094;4.408;2024-01-07T00:16:49;14.40;;;12.67;;
38397;SDS011;24179;52.094;4.408;2024-01-07T00:19:50;14.00;;;12.02;;
38397;SDS011;24179;52.094;4.408;2024-01-07T00:22:51;14.43;;;12.77;;
38397;SDS011;24179;52.094;4.408;2024-01-07T00:25:51;13.50;;;11.83;;
38397;SDS011;24179;52.094;4.408;2024-01-07T00:28:52;13.60;;;12.20;;
38397;SDS011;24179;52.094;4.408;2024-01-07T00:31:52;13.77;;;12.37;;
38397;SDS011;24179;52.094;4.408;2024-01-07T00:34:53;14.30;;;12.80;;
38397;SDS011;24179;52.094;4.408;2024-01-07T00:37:53;13.80;;;12.27;;
38397;SDS011;24179;52.094;4.408;2024-01-07T00:40:56;14.02;;;12.52;;
38397;SDS011;24179;52.094;4.408;2024-01-07T00:43:57;13.70;;;12.23;;
38397;SDS011;24179;52.094;4.408;2024-01-07T00:46:57;14.07;;;12.40;;
38397;SDS011;24179;52.094;4.408;2024-01-07T00:49:58;14.07;;;12.27;;
38397;SDS011;24179;52.094;4.408;2024-01-07T00:52:58;14.37;;;12.87;;
38397;SDS011;24179;52.094;4.408;2024-01-07T00:55:59;14.80;;;12.67;;
38397;SDS011;24179;52.094;4.408;2024-01-07T00:58:59;14.10;;;12.47;;
38397;SDS011;24179;52.094;4.408;2024-01-07T01:02:01;14.32;;;12.40;;
38397;SDS011;24179;52.094;4.408;2024-01-07T01:05:02;13.93;;;12.43;;
38397;SDS011;24179;52.094;4.408;2024-01-07T01:08:03;14.73;;;13.18;;
38397;SDS011;24179;52.094;4.408;2024-01-07T01:11:04;14.95;;;13.35;;
38397;SDS011;24179;52.094;4.408;2024-01-07T01:14:04;17.20;;;13.40;;
38397;SDS011;24179;52.094;4.408;2024-01-07T01:17:05;15.13;;;13.47;;
38397;SDS011;24179;52.094;4.408;2024-01-07T01:20:06;13.93;;;12.47;;
38397;SDS011;24179;52.094;4.408;2024-01-07T01:23:07;15.90;;;13.02;;
38397;SDS011;24179;52.094;4.408;2024-01-07T01:26:07;14.80;;;12.97;;
38397;SDS011;24179;52.094;4.408;2024-01-07T01:29:08;15.33;;;13.10;;
38397;SDS011;24179;52.094;4.408;2024-01-07T01:32:08;15.50;;;13.57;;
38397;SDS011;24179;52.094;4.408;2024-01-07T01:35:10;14.50;;;13.00;;
38397;SDS011;24179;52.094;4.408;2024-01-07T01:38:10;15.20;;;13.60;;
38397;SDS011;24179;52.094;4.408;2024-01-07T01:41:11;15.20;;;13.60;;
38397;SDS011;24179;52.094;4.408;2024-01-07T01:44:12;15.27;;;13.73;;
38397;SDS011;24179;52.094;4.408;2024-01-07T01:47:12;15.00;;;13.37;;
38397;SDS011;24179;52.094;4.408;2024-01-07T01:50:13;14.68;;;13.10;;
38397;SDS011;24179;52.094;4.408;2024-01-07T01:53:15;16.00;;;13.70;;
38397;SDS011;24179;52.094;4.408;2024-01-07T01:56:16;15.15;;;13.30;;
38397;SDS011;24179;52.094;4.408;2024-01-07T01:59:18;16.15;;;13.20;;
38397;SDS011;24179;52.094;4.408;2024-01-07T02:02:19;17.30;;;13.80;;
38397;SDS011;24179;52.094;4.408;2024-01-07T02:05:20;16.40;;;13.67;;
38397;SDS011;24179;52.094;4.408;2024-01-07T02:08:21;18.20;;;14.05;;
38397;SDS011;24179;52.094;4.408;2024-01-07T02:11:22;14.40;;;12.40;;
38397;SDS011;24179;52.094;4.408;2024-01-07T02:14:23;14.97;;;13.27;;
38397;SDS011;24179;52.094;4.408;2024-01-07T02:17:23;18.30;;;14.03;;
38397;SDS011;24179;52.094;4.408;2024-01-07T02:20:24;16.07;;;13.77;;
38397;SDS011;24179;52.094;4.408;2024-01-07T02:23:25;15.17;;;13.33;;
38397;SDS011;24179;52.094;4.408;2024-01-07T02:26:25;16.23;;;14.27;;
38397;SDS011;24179;52.094;4.408;2024-01-07T02:29:26;15.60;;;13.90;;
38397;SDS011;24179;52.094;4.408;2024-01-07T02:32:26;15.10;;;13.47;;
38397;SDS011;24179;52.094;4.408;2024-01-07T02:35:27;15.23;;;13.33;;
38397;SDS011;24179;52.094;4.408;2024-01-07T02:38:27;17.63;;;14.67;;
38397;SDS011;24179;52.094;4.408;2024-01-07T02:41:28;18.00;;;13.20;;
38397;SDS011;24179;52.094;4.408;2024-01-07T02:44:29;14.70;;;13.27;;
38397;SDS011;24179;52.094;4.408;2024-01-07T02:47:29;15.67;;;13.33;;
38397;SDS011;24179;52.094;4.408;2024-01-07T02:50:30;16.77;;;13.83;;
38397;SDS011;24179;52.094;4.408;2024-01-07T02:53:32;16.05;;;14.18;;
38397;SDS011;24179;52.094;4.408;2024-01-07T02:56:32;15.90;;;14.07;;
38397;SDS011;24179;52.094;4.408;2024-01-07T02:59:33;19.90;;;13.90;;
38397;SDS011;24179;52.094;4.408;2024-01-07T03:02:33;17.53;;;14.17;;
38397;SDS011;24179;52.094;4.408;2024-01-07T03:05:34;16.00;;;14.30;;
38397;SDS011;24179;52.094;4.408;2024-01-07T03:08:35;19.93;;;14.83;;
38397;SDS011;24179;52.094;4.408;2024-01-07T03:11:39;16.80;;;13.57;;
38397;SDS011;24179;52.094;4.408;2024-01-07T03:14:43;15.90;;;14.20;;
38397;SDS011;24179;52.094;4.408;2024-01-07T03:17:44;15.73;;;13.35;;
38397;SDS011;24179;52.094;4.408;2024-01-07T03:20:44;16.50;;;13.80;;
38397;SDS011;24179;52.094;4.408;2024-01-07T03:23:45;15.00;;;13.50;;
38397;SDS011;24179;52.094;4.408;2024-01-07T03:26:46;18.70;;;14.05;;
38397;SDS011;24179;52.094;4.408;2024-01-07T03:29:47;15.27;;;13.30;;
38397;SDS011;24179;52.094;4.408;2024-01-07T03:32:47;15.00;;;13.40;;
38397;SDS011;24179;52.094;4.408;2024-01-07T03:35:48;16.47;;;14.30;;
38397;SDS011;24179;52.094;4.408;2024-01-07T03:38:48;14.23;;;12.73;;
38397;SDS011;24179;52.094;4.408;2024-01-07T03:41:49;15.17;;;13.13;;
38397;SDS011;24179;52.094;4.408;2024-01-07T03:44:54;15.00;;;13.43;;
38397;SDS011;24179;52.094;4.408;2024-01-07T03:47:54;14.70;;;13.20;;
38397;SDS011;24179;52.094;4.408;2024-01-07T03:50:55;18.53;;;13.47;;
38397;SDS011;24179;52.094;4.408;2024-01-07T03:53:55;15.00;;;13.40;;
38397;SDS011;24179;52.094;4.408;2024-01-07T03:56:56;15.87;;;14.00;;
38397;SDS011;24179;52.094;4.408;2024-01-07T03:59:57;15.00;;;13.50;;
38397;SDS011;24179;52.094;4.408;2024-01-07T04:02:57;14.80;;;13.30;;
38397;SDS011;24179;52.094;4.408;2024-01-07T04:05:58;15.27;;;13.27;;
38397;SDS011;24179;52.094;4.408;2024-01-07T04:08:59;15.87;;;13.37;;
38397;SDS011;24179;52.094;4.408;2024-01-07T04:11:59;15.80;;;14.10;;
38397;SDS011;24179;52.094;4.408;2024-01-07T04:15:00;16.13;;;12.27;;
38397;SDS011;24179;52.094;4.408;2024-01-07T04:18:03;15.57;;;13.67;;
38397;SDS011;24179;52.094;4.408;2024-01-07T04:21:04;14.57;;;12.60;;
38397;SDS011;24179;52.094;4.408;2024-01-07T04:24:09;15.77;;;12.95;;
38397;SDS011;24179;52.094;4.408;2024-01-07T04:27:10;14.53;;;12.87;;
38397;SDS011;24179;52.094;4.408;2024-01-07T04:30:10;15.33;;;13.20;;
38397;SDS011;24179;52.094;4.408;2024-01-07T04:33:11;14.90;;;12.90;;
38397;SDS011;24179;52.094;4.408;2024-01-07T04:36:12;17.67;;;13.40;;
38397;SDS011;24179;52.094;4.408;2024-01-07T04:39:13;14.70;;;12.60;;
38397;SDS011;24179;52.094;4.408;2024-01-07T04:42:13;17.73;;;13.03;;
38397;SDS011;24179;52.094;4.408;2024-01-07T04:45:14;15.20;;;13.53;;
38397;SDS011;24179;52.094;4.408;2024-01-07T04:48:14;16.63;;;12.93;;
38397;SDS011;24179;52.094;4.408;2024-01-07T04:51:15;15.33;;;13.23;;
38397;SDS011;24179;52.094;4.408;2024-01-07T04:54:15;15.20;;;13.00;;
38397;SDS011;24179;52.094;4.408;2024-01-07T04:57:16;18.17;;;13.53;;
38397;SDS011;24179;52.094;4.408;2024-01-07T05:00:17;18.77;;;14.40;;
38397;SDS011;24179;52.094;4.408;2024-01-07T05:03:17;17.17;;;13.15;;
38397;SDS011;24179;52.094;4.408;2024-01-07T05:06:18;15.43;;;13.83;;
38397;SDS011;24179;52.094;4.408;2024-01-07T05:09:18;16.53;;;14.30;;
38397;SDS011;24179;52.094;4.408;2024-01-07T05:12:19;21.77;;;14.67;;
38397;SDS011;24179;52.094;4.408;2024-01-07T05:15:20;16.08;;;14.18;;
38397;SDS011;24179;52.094;4.408;2024-01-07T05:18:21;17.10;;;14.33;;
38397;SDS011;24179;52.094;4.408;2024-01-07T05:24:23;15.50;;;12.93;;
38397;SDS011;24179;52.094;4.408;2024-01-07T05:27:23;15.53;;;13.33;;
38397;SDS011;24179;52.094;4.408;2024-01-07T05:30:24;17.83;;;14.50;;
38397;SDS011;24179;52.094;4.408;2024-01-07T05:33:24;17.70;;;14.27;;
38397;SDS011;24179;52.094;4.408;2024-01-07T05:36:25;17.27;;;13.40;;
38397;SDS011;24179;52.094;4.408;2024-01-07T05:39:25;16.17;;;13.32;;
38397;SDS011;24179;52.094;4.408;2024-01-07T05:42:26;13.87;;;12.33;;
38397;SDS011;24179;52.094;4.408;2024-01-07T05:45:29;20.50;;;13.65;;
38397;SDS011;24179;52.094;4.408;2024-01-07T05:48:32;19.53;;;14.33;;
38397;SDS011;24179;52.094;4.408;2024-01-07T05:51:42;17.70;;;14.13;;
38397;SDS011;24179;52.094;4.408;2024-01-07T05:54:42;18.20;;;13.30;;
38397;SDS011;24179;52.094;4.408;2024-01-07T05:57:43;16.70;;;13.97;;
38397;SDS011;24179;52.094;4.408;2024-01-07T06:00:43;16.57;;;13.33;;
38397;SDS011;24179;52.094;4.408;2024-01-07T06:03:44;16.30;;;13.03;;
38397;SDS011;24179;52.094;4.408;2024-01-07T06:06:45;18.23;;;13.98;;
38397;SDS011;24179;52.094;4.408;2024-01-07T06:09:46;18.90;;;13.00;;
38397;SDS011;24179;52.094;4.408;2024-01-07T06:12:46;18.57;;;14.30;;
38397;SDS011;24179;52.094;4.408;2024-01-07T06:15:47;19.73;;;13.93;;
38397;SDS011;24179;52.094;4.408;2024-01-07T06:18:47;17.60;;;14.30;;
38397;SDS011;24179;52.094;4.408;2024-01-07T06:21:48;20.03;;;14.03;;
38397;SDS011;24179;52.094;4.408;2024-01-07T06:24:48;20.63;;;14.20;;
38397;SDS011;24179;52.094;4.408;2024-01-07T06:27:49;18.67;;;13.93;;
38397;SDS011;24179;52.094;4.408;2024-01-07T06:30:50;20.48;;;14.13;;
38397;SDS011;24179;52.094;4.408;2024-01-07T06:33:50;19.63;;;14.20;;
38397;SDS011;24179;52.094;4.408;2024-01-07T06:36:51;17.37;;;14.07;;
38397;SDS011;24179;52.094;4.408;2024-01-07T06:39:52;20.63;;;14.13;;
38397;SDS011;24179;52.094;4.408;2024-01-07T06:42:53;19.93;;;14.87;;
38397;SDS011;24179;52.094;4.408;2024-01-07T06:45:53;19.93;;;12.67;;
38397;SDS011;24179;52.094;4.408;2024-01-07T06:48:54;19.83;;;13.77;;
38397;SDS011;24179;52.094;4.408;2024-01-07T06:51:54;19.57;;;13.67;;
38397;SDS011;24179;52.094;4.408;2024-01-07T06:54:55;19.27;;;13.03;;
38397;SDS011;24179;52.094;4.408;2024-01-07T06:57:55;20.33;;;14.77;;
38397;SDS011;24179;52.094;4.408;2024-01-07T07:00:56;24.67;;;14.53;;
38397;SDS011;24179;52.094;4.408;2024-01-07T07:03:56;20.17;;;13.60;;
38397;SDS011;24179;52.094;4.408;2024-01-07T07:06:57;17.27;;;12.57;;
38397;SDS011;24179;52.094;4.408;2024-01-07T07:12:59;19.80;;;12.90;;
38397;SDS011;24179;52.094;4.408;2024-01-07T07:16:00;19.70;;;13.60;;
38397;SDS011;24179;52.094;4.408;2024-01-07T07:19:01;19.87;;;13.57;;
38397;SDS011;24179;52.094;4.408;2024-01-07T07:22:02;21.52;;;14.90;;
38397;SDS011;24179;52.094;4.408;2024-01-07T07:25:04;20.27;;;13.07;;
38397;SDS011;24179;52.094;4.408;2024-01-07T07:28:05;20.92;;;14.02;;
38397;SDS011;24179;52.094;4.408;2024-01-07T07:31:06;18.07;;;13.37;;
38397;SDS011;24179;52.094;4.408;2024-01-07T07:34:08;18.77;;;12.50;;
38397;SDS011;24179;52.094;4.408;2024-01-07T07:37:09;20.42;;;13.50;;
38397;SDS011;24179;52.094;4.408;2024-01-07T07:40:10;18.00;;;13.43;;
38397;SDS011;24179;52.094;4.408;2024-01-07T07:43:12;17.95;;;12.60;;
38397;SDS011;24179;52.094;4.408;2024-01-07T07:46:13;18.47;;;12.53;;
38397;SDS011;24179;52.094;4.408;2024-01-07T07:49:15;18.98;;;12.75;;
38397;SDS011;24179;52.094;4.408;2024-01-07T07:52:16;18.03;;;12.93;;
38397;SDS011;24179;52.094;4.408;2024-01-07T07:55:21;16.67;;;13.10;;
38397;SDS011;24179;52.094;4.408;2024-01-07T07:58:22;18.73;;;12.40;;
38397;SDS011;24179;52.094;4.408;2024-01-07T08:01:23;17.97;;;12.83;;
38397;SDS011;24179;52.094;4.408;2024-01-07T08:04:24;16.75;;;12.50;;
38397;SDS011;24179;52.094;4.408;2024-01-07T08:07:26;17.85;;;12.43;;
38397;SDS011;24179;52.094;4.408;2024-01-07T08:10:27;14.03;;;11.53;;
38397;SDS011;24179;52.094;4.408;2024-01-07T08:16:29;15.13;;;11.63;;
38397;SDS011;24179;52.094;4.408;2024-01-07T08:19:29;15.27;;;11.47;;
38397;SDS011;24179;52.094;4.408;2024-01-07T08:22:30;16.20;;;12.07;;
38397;SDS011;24179;52.094;4.408;2024-01-07T08:25:31;19.17;;;12.53;;
38397;SDS011;24179;52.094;4.408;2024-01-07T08:28:32;19.70;;;12.70;;
38397;SDS011;24179;52.094;4.408;2024-01-07T08:31:32;15.33;;;12.13;;
38397;SDS011;24179;52.094;4.408;2024-01-07T08:34:33;17.40;;;12.37;;
38397;SDS011;24179;52.094;4.408;2024-01-07T08:37:35;16.40;;;12.65;;
38397;SDS011;24179;52.094;4.408;2024-01-07T08:40:35;14.57;;;11.67;;
38397;SDS011;24179;52.094;4.408;2024-01-07T08:43:36;15.03;;;12.50;;
38397;SDS011;24179;52.094;4.408;2024-01-07T08:46:36;14.30;;;11.53;;
38397;SDS011;24179;52.094;4.408;2024-01-07T08:49:37;17.13;;;12.10;;
38397;SDS011;24179;52.094;4.408;2024-01-07T08:52:38;17.45;;;12.52;;
38397;SDS011;24179;52.094;4.408;2024-01-07T08:55:39;17.33;;;12.10;;
38397;SDS011;24179;52.094;4.408;2024-01-07T08:58:40;15.90;;;12.47;;
38397;SDS011;24179;52.094;4.408;2024-01-07T09:01:41;14.85;;;12.02;;
38397;SDS011;24179;52.094;4.408;2024-01-07T09:04:42;16.90;;;12.10;;
38397;SDS011;24179;52.094;4.408;2024-01-07T09:07:43;17.67;;;12.17;;
38397;SDS011;24179;52.094;4.408;2024-01-07T09:10:43;16.30;;;11.43;;
38397;SDS011;24179;52.094;4.408;2024-01-07T09:13:44;14.00;;;11.80;;
38397;SDS011;24179;52.094;4.408;2024-01-07T09:16:44;14.50;;;11.43;;
38397;SDS011;24179;52.094;4.408;2024-01-07T09:19:45;14.43;;;11.30;;
38397;SDS011;24179;52.094;4.408;2024-01-07T09:22:46;13.90;;;11.60;;
38397;SDS011;24179;52.094;4.408;2024-01-07T09:25:46;12.97;;;11.57;;
38397;SDS011;24179;52.094;4.408;2024-01-07T09:28:47;15.57;;;11.53;;
38397;SDS011;24179;52.094;4.408;2024-01-07T09:31:47;15.97;;;12.27;;
38397;SDS011;24179;52.094;4.408;2024-01-07T09:34:48;13.80;;;11.17;;
38397;SDS011;24179;52.094;4.408;2024-01-07T09:37:48;15.63;;;11.73;;
38397;SDS011;24179;52.094;4.408;2024-01-07T09:40:49;15.30;;;11.43;;
38397;SDS011;24179;52.094;4.408;2024-01-07T09:43:50;13.83;;;10.67;;
38397;SDS011;24179;52.094;4.408;2024-01-07T09:46:54;16.60;;;11.23;;
38397;SDS011;24179;52.094;4.408;2024-01-07T09:49:56;16.20;;;11.90;;
38397;SDS011;24179;52.094;4.408;2024-01-07T09:52:57;13.57;;;10.80;;
38397;SDS011;24179;52.094;4.408;2024-01-07T09:59:15;16.15;;;11.45;;
38397;SDS011;24179;52.094;4.408;2024-01-07T10:02:17;14.45;;;10.98;;
38397;SDS011;24179;52.094;4.408;2024-01-07T10:05:18;13.00;;;10.80;;
38397;SDS011;24179;52.094;4.408;2024-01-07T10:08:19;14.53;;;10.23;;
38397;SDS011;24179;52.094;4.408;2024-01-07T10:11:21;12.88;;;10.93;;
38397;SDS011;24179;52.094;4.408;2024-01-07T10:14:22;12.90;;;11.15;;
38397;SDS011;24179;52.094;4.408;2024-01-07T10:17:24;14.10;;;11.43;;
38397;SDS011;24179;52.094;4.408;2024-01-07T10:20:28;12.30;;;10.88;;
38397;SDS011;24179;52.094;4.408;2024-01-07T10:23:29;14.25;;;11.10;;
38397;SDS011;24179;52.094;4.408;2024-01-07T10:26:29;13.98;;;11.25;;
38397;SDS011;24179;52.094;4.408;2024-01-07T10:29:30;12.83;;;10.70;;
38397;SDS011;24179;52.094;4.408;2024-01-07T10:32:31;11.88;;;10.70;;
38397;SDS011;24179;52.094;4.408;2024-01-07T10:35:32;14.97;;;11.27;;
38397;SDS011;24179;52.094;4.408;2024-01-07T10:38:34;14.65;;;11.52;;
38397;SDS011;24179;52.094;4.408;2024-01-07T10:41:35;14.52;;;10.90;;
38397;SDS011;24179;52.094;4.408;2024-01-07T10:44:38;11.88;;;10.38;;
38397;SDS011;24179;52.094;4.408;2024-01-07T10:47:39;12.50;;;10.20;;
38397;SDS011;24179;52.094;4.408;2024-01-07T10:50:44;13.82;;;10.77;;
38397;SDS011;24179;52.094;4.408;2024-01-07T10:53:46;11.68;;;10.48;;
38397;SDS011;24179;52.094;4.408;2024-01-07T10:56:53;13.95;;;10.50;;
38397;SDS011;24179;52.094;4.408;2024-01-07T10:59:58;13.88;;;11.10;;
38397;SDS011;24179;52.094;4.408;2024-01-07T11:06:31;12.65;;;11.35;;
38397;SDS011;24179;52.094;4.408;2024-01-07T11:09:35;11.13;;;9.93;;
38397;SDS011;24179;52.094;4.408;2024-01-07T11:12:48;13.60;;;11.77;;
38397;SDS011;24179;52.094;4.408;2024-01-07T11:15:54;12.20;;;10.90;;
38397;SDS011;24179;52.094;4.408;2024-01-07T11:18:55;11.30;;;10.18;;
38397;SDS011;24179;52.094;4.408;2024-01-07T11:25:31;11.70;;;10.52;;
38397;SDS011;24179;52.094;4.408;2024-01-07T11:28:42;12.18;;;9.82;;
38397;SDS011;24179;52.094;4.408;2024-01-07T11:31:47;10.82;;;9.82;;
38397;SDS011;24179;52.094;4.408;2024-01-07T11:34:48;11.87;;;10.67;;
38397;SDS011;24179;52.094;4.408;2024-01-07T11:37:52;11.77;;;10.68;;
38397;SDS011;24179;52.094;4.408;2024-01-07T11:40:52;12.90;;;11.60;;
38397;SDS011;24179;52.094;4.408;2024-01-07T11:43:57;13.35;;;12.02;;
38397;SDS011;24179;52.094;4.408;2024-01-07T11:46:59;12.50;;;11.32;;
38397;SDS011;24179;52.094;4.408;2024-01-07T11:50:01;12.15;;;10.95;;
38397;SDS011;24179;52.094;4.408;2024-01-07T11:53:01;11.63;;;10.57;;
38397;SDS011;24179;52.094;4.408;2024-01-07T11:56:02;12.10;;;10.90;;
38397;SDS011;24179;52.094;4.408;2024-01-07T11:59:03;12.05;;;10.95;;
38397;SDS011;24179;52.094;4.408;2024-01-07T12:02:04;12.33;;;11.20;;
38397;SDS011;24179;52.094;4.408;2024-01-07T12:05:05;11.45;;;10.52;;
38397;SDS011;24179;52.094;4.408;2024-01-07T12:08:06;11.68;;;10.57;;
38397;SDS011;24179;52.094;4.408;2024-01-07T12:11:07;13.97;;;10.73;;
38397;SDS011;24179;52.094;4.408;2024-01-07T12:14:08;12.30;;;10.57;;
38397;SDS011;24179;52.094;4.408;2024-01-07T12:17:10;11.50;;;10.32;;
38397;SDS011;24179;52.094;4.408;2024-01-07T12:20:11;11.70;;;10.50;;
38397;SDS011;24179;52.094;4.408;2024-01-07T12:23:12;11.37;;;10.47;;
38397;SDS011;24179;52.094;4.408;2024-01-07T12:26:12;11.15;;;10.25;;
38397;SDS011;24179;52.094;4.408;2024-01-07T12:29:13;10.87;;;9.97;;
38397;SDS011;24179;52.094;4.408;2024-01-07T12:32:15;10.95;;;9.95;;
38397;SDS011;24179;52.094;4.408;2024-01-07T12:35:16;10.23;;;9.32;;
38397;SDS011;24179;52.094;4.408;2024-01-07T12:38:22;11.43;;;9.03;;
38397;SDS011;24179;52.094;4.408;2024-01-07T12:41:26;11.65;;;10.05;;
38397;SDS011;24179;52.094;4.408;2024-01-07T12:44:27;11.07;;;9.97;;
38397;SDS011;24179;52.094;4.408;2024-01-07T12:47:28;10.65;;;9.55;;
38397;SDS011;24179;52.094;4.408;2024-01-07T12:50:29;11.57;;;9.30;;
38397;SDS011;24179;52.094;4.408;2024-01-07T12:53:32;9.85;;;9.15;;
38397;SDS011;24179;52.094;4.408;2024-01-07T12:56:33;10.07;;;9.17;;
38397;SDS011;24179;52.094;4.408;2024-01-07T12:59:34;9.37;;;8.47;;
38397;SDS011;24179;52.094;4.408;2024-01-07T13:02:34;9.67;;;8.80;;
38397;SDS011;24179;52.094;4.408;2024-01-07T13:05:35;9.63;;;8.88;;
38397;SDS011;24179;52.094;4.408;2024-01-07T13:08:38;9.60;;;8.75;;
38397;SDS011;24179;52.094;4.408;2024-01-07T13:11:40;9.57;;;8.73;;
38397;SDS011;24179;52.094;4.408;2024-01-07T13:14:43;8.52;;;7.85;;
38397;SDS011;24179;52.094;4.408;2024-01-07T13:17:43;9.57;;;8.57;;
38397;SDS011;24179;52.094;4.408;2024-01-07T13:20:44;9.47;;;8.60;;
38397;SDS011;24179;52.094;4.408;2024-01-07T13:23:45;9.13;;;8.27;;
38397;SDS011;24179;52.094;4.408;2024-01-07T13:26:45;10.10;;;8.48;;
38397;SDS011;24179;52.094;4.408;2024-01-07T13:29:46;9.87;;;8.87;;
38397;SDS011;24179;52.094;4.408;2024-01-07T13:32:47;8.95;;;8.27;;
38397;SDS011;24179;52.094;4.408;2024-01-07T13:35:49;9.70;;;8.48;;
38397;SDS011;24179;52.094;4.408;2024-01-07T13:38:50;11.43;;;8.50;;
38397;SDS011;24179;52.094;4.408;2024-01-07T13:47:53;8.40;;;7.60;;
38397;SDS011;24179;52.094;4.408;2024-01-07T13:50:54;10.40;;;8.27;;
38397;SDS011;24179;52.094;4.408;2024-01-07T13:53:55;8.55;;;7.72;;
38397;SDS011;24179;52.094;4.408;2024-01-07T13:56:56;8.23;;;7.53;;
38397;SDS011;24179;52.094;4.408;2024-01-07T13:59:56;8.10;;;7.47;;
38397;SDS011;24179;52.094;4.408;2024-01-07T14:02:57;8.43;;;7.83;;
38397;SDS011;24179;52.094;4.408;2024-01-07T14:05:58;8.03;;;7.30;;
38397;SDS011;24179;52.094;4.408;2024-01-07T14:08:59;8.43;;;7.80;;
38397;SDS011;24179;52.094;4.408;2024-01-07T14:11:59;7.73;;;6.93;;
38397;SDS011;24179;52.094;4.408;2024-01-07T14:15:00;8.15;;;7.35;;
38397;SDS011;24179;52.094;4.408;2024-01-07T14:18:01;7.40;;;6.80;;
38397;SDS011;24179;52.094;4.408;2024-01-07T14:21:01;7.80;;;7.20;;
38397;SDS011;24179;52.094;4.408;2024-01-07T14:24:02;8.20;;;7.47;;
38397;SDS011;24179;52.094;4.408;2024-01-07T14:27:03;7.65;;;7.15;;
38397;SDS011;24179;52.094;4.408;2024-01-07T14:30:04;8.40;;;7.65;;
38397;SDS011;24179;52.094;4.408;2024-01-07T14:33:05;7.95;;;7.43;;
38397;SDS011;24179;52.094;4.408;2024-01-07T14:36:05;9.10;;;8.20;;
38397;SDS011;24179;52.094;4.408;2024-01-07T14:39:06;8.15;;;7.45;;
38397;SDS011;24179;52.094;4.408;2024-01-07T14:42:08;8.35;;;7.03;;
38397;SDS011;24179;52.094;4.408;2024-01-07T14:45:09;8.33;;;7.63;;
38397;SDS011;24179;52.094;4.408;2024-01-07T14:48:09;8.13;;;7.33;;
38397;SDS011;24179;52.094;4.408;2024-01-07T14:51:10;7.33;;;6.60;;
38397;SDS011;24179;52.094;4.408;2024-01-07T14:54:11;8.55;;;7.70;;
38397;SDS011;24179;52.094;4.408;2024-01-07T14:57:11;7.83;;;7.13;;
38397;SDS011;24179;52.094;4.408;2024-01-07T15:00:12;7.83;;;7.23;;
38397;SDS011;24179;52.094;4.408;2024-01-07T15:06:14;8.43;;;7.43;;
38397;SDS011;24179;52.094;4.408;2024-01-07T15:09:15;8.50;;;7.15;;
38397;SDS011;24179;52.094;4.408;2024-01-07T15:12:15;7.93;;;7.23;;
38397;SDS011;24179;52.094;4.408;2024-01-07T15:15:16;8.27;;;7.50;;
38397;SDS011;24179;52.094;4.408;2024-01-07T15:18:16;7.33;;;6.83;;
38397;SDS011;24179;52.094;4.408;2024-01-07T15:21:18;7.60;;;6.93;;
38397;SDS011;24179;52.094;4.408;2024-01-07T15:24:18;8.63;;;7.80;;
38397;SDS011;24179;52.094;4.408;2024-01-07T15:27:19;8.05;;;7.43;;
38397;SDS011;24179;52.094;4.408;2024-01-07T15:30:19;7.77;;;7.13;;
38397;SDS011;24179;52.094;4.408;2024-01-07T15:33:20;7.77;;;7.07;;
38397;SDS011;24179;52.094;4.408;2024-01-07T15:36:20;8.40;;;7.57;;
38397;SDS011;24179;52.094;4.408;2024-01-07T15:39:21;7.80;;;7.20;;
38397;SDS011;24179;52.094;4.408;2024-01-07T15:42:22;7.13;;;6.53;;
38397;SDS011;24179;52.094;4.408;2024-01-07T15:45:22;7.78;;;7.05;;
38397;SDS011;24179;52.094;4.408;2024-01-07T15:48:23;8.23;;;7.50;;
38397;SDS011;24179;52.094;4.408;2024-01-07T15:51:24;8.00;;;7.32;;
38397;SDS011;24179;52.094;4.408;2024-01-07T15:54:25;8.60;;;7.70;;
38397;SDS011;24179;52.094;4.408;2024-01-07T15:57:25;8.00;;;7.40;;
38397;SDS011;24179;52.094;4.408;2024-01-07T16:00:26;7.40;;;6.80;;
38397;SDS011;24179;52.094;4.408;2024-01-07T16:03:26;7.33;;;6.73;;
38397;SDS011;24179;52.094;4.408;2024-01-07T16:06:27;7.50;;;6.80;;
38397;SDS011;24179;52.094;4.408;2024-01-07T16:09:28;6.90;;;6.40;;
38397;SDS011;24179;52.094;4.408;2024-01-07T16:12:28;7.00;;;6.30;;
38397;SDS011;24179;52.094;4.408;2024-01-07T16:15:30;7.70;;;7.10;;
38397;SDS011;24179;52.094;4.408;2024-01-07T16:18:31;7.83;;;7.23;;
38397;SDS011;24179;52.094;4.408;2024-01-07T16:21:31;7.97;;;7.27;;
38397;SDS011;24179;52.094;4.408;2024-01-07T16:24:32;8.13;;;7.33;;
38397;SDS011;24179;52.094;4.408;2024-01-07T16:27:34;8.25;;;7.47;;
38397;SDS011;24179;52.094;4.408;2024-01-07T16:30:35;8.80;;;8.00;;
38397;SDS011;24179;52.094;4.408;2024-01-07T16:33:36;8.33;;;7.30;;
38397;SDS011;24179;52.094;4.408;2024-01-07T16:36:41;7.90;;;7.20;;
38397;SDS011;24179;52.094;4.408;2024-01-07T16:39:42;9.73;;;7.50;;
38397;SDS011;24179;52.094;4.408;2024-01-07T16:42:43;8.70;;;7.80;;
38397;SDS011;24179;52.094;4.408;2024-01-07T16:45:43;8.23;;;7.40;;
38397;SDS011;24179;52.094;4.408;2024-01-07T16:48:44;8.60;;;7.80;;
38397;SDS011;24179;52.094;4.408;2024-01-07T16:51:45;8.25;;;7.60;;
38397;SDS011;24179;52.094;4.408;2024-01-07T16:54:45;9.13;;;7.87;;
38397;SDS011;24179;52.094;4.408;2024-01-07T16:57:47;8.30;;;7.53;;
38397;SDS011;24179;52.094;4.408;2024-01-07T17:00:48;8.47;;;7.73;;
38397;SDS011;24179;52.094;4.408;2024-01-07T17:03:49;8.25;;;7.47;;
38397;SDS011;24179;52.094;4.408;2024-01-07T17:06:49;8.17;;;7.37;;
38397;SDS011;24179;52.094;4.408;2024-01-07T17:09:50;10.80;;;7.20;;
38397;SDS011;24179;52.094;4.408;2024-01-07T17:12:50;8.63;;;7.83;;
38397;SDS011;24179;52.094;4.408;2024-01-07T17:15:51;8.60;;;7.90;;
38397;SDS011;24179;52.094;4.408;2024-01-07T17:18:52;9.00;;;8.27;;
38397;SDS011;24179;52.094;4.408;2024-01-07T17:21:52;9.20;;;8.30;;
38397;SDS011;24179;52.094;4.408;2024-01-07T17:24:53;8.47;;;7.63;;
38397;SDS011;24179;52.094;4.408;2024-01-07T17:27:54;8.30;;;7.55;;
38397;SDS011;24179;52.094;4.408;2024-01-07T17:30:54;8.50;;;7.70;;
38397;SDS011;24179;52.094;4.408;2024-01-07T17:33:55;7.27;;;6.67;;
38397;SDS011;24179;52.094;4.408;2024-01-07T17:36:55;7.63;;;6.93;;
38397;SDS011;24179;52.094;4.408;2024-01-07T17:39:56;7.73;;;7.00;;
38397;SDS011;24179;52.094;4.408;2024-01-07T17:42:58;8.13;;;7.32;;
38397;SDS011;24179;52.094;4.408;2024-01-07T17:46:01;7.53;;;6.93;;
38397;SDS011;24179;52.094;4.408;2024-01-07T17:49:02;7.38;;;6.68;;
38397;SDS011;24179;52.094;4.408;2024-01-07T17:52:04;7.18;;;6.38;;
38397;SDS011;24179;52.094;4.408;2024-01-07T17:55:05;7.50;;;6.72;;
38397;SDS011;24179;52.094;4.408;2024-01-07T17:58:06;7.32;;;6.63;;
38397;SDS011;24179;52.094;4.408;2024-01-07T18:01:08;6.75;;;6.15;;
38397;SDS011;24179;52.094;4.408;2024-01-07T18:04:09;7.75;;;6.95;;
38397;SDS011;24179;52.094;4.408;2024-01-07T18:07:10;7.93;;;7.13;;
38397;SDS011;24179;52.094;4.408;2024-01-07T18:10:14;8.00;;;7.20;;
38397;SDS011;24179;52.094;4.408;2024-01-07T18:13:15;7.70;;;7.00;;
38397;SDS011;24179;52.094;4.408;2024-01-07T18:16:15;7.47;;;6.78;;